Time;durP1;ratioP1;P1;durP2;ratioP2;P2;SDS_P1;SDS_P2;PMS_P1;PMS_P2;Temp;Humidity;BMP_temperature;BMP_pressure;BME280_temperature;BME280_humidity;BME280_pressure;Samples;Min_cycle;Max_cycle;Signal;HPM_P1;HPM_P2
2021/04/22 00:01:38;;;;;;;9.85;1.95;;;;;;;-0.09;100.00;100888.59;5092429;28;20106;-76
2021/04/22 00:04:42;;;;;;;1.10;1.10;;;;;;;-0.14;100.00;100887.00;5092066;28;20094;-76
2021/04/22 00:07:47;;;;;;;1.17;1.17;;;;;;;-0.21;100.00;100892.41;5092458;28;20055;-75
2021/04/22 00:10:52;;;;;;;1.40;1.40;;;;;;;-0.30;100.00;100883.72;5091256;28;20047;-76
2021/04/22 00:13:56;;;;;;;2.40;1.80;;;;;;;-0.35;100.00;100883.28;5091309;28;20055;-77
2021/04/22 00:16:59;;;;;;;1.85;1.75;;;;;;;-0.41;100.00;100888.28;5092127;28;20082;-76
2021/04/22 00:20:03;;;;;;;5.15;1.63;;;;;;;-0.46;100.00;100885.13;5091301;28;20134;-78
2021/04/22 00:23:09;;;;;;;1.60;1.60;;;;;;;-0.52;100.00;100887.41;5091463;28;20055;-77
2021/04/22 00:26:13;;;;;;;1.50;1.50;;;;;;;-0.55;100.00;100892.84;5092312;28;20051;-75
2021/04/22 00:29:16;;;;;;;1.50;1.50;;;;;;;-0.64;100.00;100898.63;5090865;28;20533;-77
2021/04/22 00:32:20;;;;;;;1.67;1.67;;;;;;;-0.70;100.00;100897.38;5092323;28;20059;-76
2021/04/22 00:35:24;;;;;;;5.68;2.35;;;;;;;-0.76;100.00;100904.34;5092133;28;20063;-76
2021/04/22 00:38:27;;;;;;;1.83;1.83;;;;;;;-0.82;100.00;100892.94;5092012;28;20051;-75
2021/04/22 00:41:31;;;;;;;6.00;2.35;;;;;;;-0.93;100.00;100899.44;5092095;28;20055;-76
2021/04/22 00:44:35;;;;;;;1.52;1.52;;;;;;;-1.03;100.00;100891.91;5102407;28;20059;-78
2021/04/22 00:47:39;;;;;;;10.40;2.17;;;;;;;-1.09;100.00;100891.47;5112460;28;20422;-75
2021/04/22 00:50:43;;;;;;;1.40;1.40;;;;;;;-1.15;100.00;100900.34;5099626;28;20040;-76
2021/04/22 00:53:47;;;;;;;12.35;2.85;;;;;;;-1.17;100.00;100889.00;5112067;28;20055;-76
2021/04/22 00:56:51;;;;;;;1.80;1.75;;;;;;;-1.19;100.00;100896.78;5111788;28;20039;-75
2021/04/22 00:59:54;;;;;;;1.23;1.02;;;;;;;-1.24;100.00;100894.38;5111954;28;20066;-75
2021/04/22 01:02:59;;;;;;;1.98;1.88;;;;;;;-1.28;100.00;100899.00;5111829;28;20067;-75
2021/04/22 01:06:04;;;;;;;1.92;1.92;;;;;;;-1.32;100.00;100900.91;5111818;28;20058;-77
2021/04/22 01:09:13;;;;;;;1.73;1.63;;;;;;;-1.35;100.00;100904.38;5111516;28;20105;-76
2021/04/22 01:12:16;;;;;;;1.70;1.70;;;;;;;-1.39;100.00;100903.53;5111198;28;20078;-76
2021/04/22 01:15:25;;;;;;;1.88;1.88;;;;;;;-1.43;100.00;100906.22;5110699;28;20059;-76
2021/04/22 01:18:28;;;;;;;1.70;1.65;;;;;;;-1.50;100.00;100908.06;5110911;28;20054;-77
2021/04/22 01:21:32;;;;;;;1.95;1.95;;;;;;;-1.55;100.00;100915.41;5099170;28;20055;-78
2021/04/22 01:24:36;;;;;;;4.63;3.08;;;;;;;-1.63;100.00;100904.75;5111949;28;20063;-78
2021/04/22 01:27:40;;;;;;;1.40;1.35;;;;;;;-1.63;100.00;100916.47;5111731;28;20066;-78
2021/04/22 01:30:49;;;;;;;7.43;1.65;;;;;;;-1.64;100.00;100920.34;5111485;28;20492;-78
2021/04/22 01:33:59;;;;;;;4.97;1.73;;;;;;;-1.69;100.00;100917.91;5111280;28;20055;-78
2021/04/22 01:37:03;;;;;;;1.13;1.13;;;;;;;-1.76;100.00;100911.56;5111475;28;20069;-78
2021/04/22 01:40:09;;;;;;;10.05;2.38;;;;;;;-1.80;100.00;100916.19;5111507;28;20050;-78
2021/04/22 01:43:13;;;;;;;4.25;2.65;;;;;;;-1.84;100.00;100918.84;5111568;28;20063;-78
2021/04/22 01:46:17;;;;;;;2.08;2.08;;;;;;;-1.84;100.00;100918.09;5090959;28;20051;-78
2021/04/22 01:49:52;;;;;;;2.35;1.70;;;;;;;-1.85;100.00;100914.56;5090214;28;20078;-78
2021/04/22 01:52:57;;;;;;;1.60;1.50;;;;;;;-1.90;100.00;100925.78;5090876;28;20063;-75
2021/04/22 01:56:00;;;;;;;1.77;1.67;;;;;;;-1.90;100.00;100931.25;5090692;28;20055;-75
2021/04/22 01:59:04;;;;;;;1.60;1.42;;;;;;;-1.95;100.00;100937.00;5090750;28;20067;-76
2021/04/22 02:02:07;;;;;;;2.38;2.28;;;;;;;-2.01;100.00;100943.13;5090281;28;20059;-75
2021/04/22 02:05:11;;;;;;;1.60;1.60;;;;;;;-2.02;100.00;100936.91;5089924;28;20540;-77
2021/04/22 02:08:15;;;;;;;1.48;1.48;;;;;;;-2.03;100.00;100929.06;5078766;28;20555;-76
2021/04/22 02:11:19;;;;;;;2.10;1.85;;;;;;;-2.06;100.00;100936.06;5092546;28;20047;-76
2021/04/22 02:14:22;;;;;;;1.88;1.88;;;;;;;-2.08;100.00;100943.78;5091906;28;20371;-77
2021/04/22 02:17:26;;;;;;;10.50;2.20;;;;;;;-2.13;100.00;100941.38;5089493;28;20079;-76
2021/04/22 02:20:30;;;;;;;1.83;1.77;;;;;;;-2.14;100.00;100939.03;5089560;28;20052;-76
2021/04/22 02:23:34;;;;;;;2.97;2.80;;;;;;;-2.15;100.00;100943.69;5089468;28;20067;-76
2021/04/22 02:26:38;;;;;;;1.55;1.50;;;;;;;-2.18;100.00;100949.84;5078609;28;20114;-76
2021/04/22 02:29:41;;;;;;;1.60;1.60;;;;;;;-2.17;100.00;100942.47;5090533;28;20058;-75
2021/04/22 02:32:45;;;;;;;15.00;2.90;;;;;;;-2.18;100.00;100938.94;5090299;28;20110;-76
2021/04/22 02:35:50;;;;;;;1.75;1.75;;;;;;;-2.20;100.00;100946.72;5090428;28;20052;-76
2021/04/22 02:38:53;;;;;;;17.23;1.60;;;;;;;-2.25;100.00;100944.28;5090309;28;20051;-76
2021/04/22 02:41:57;;;;;;;1.90;1.90;;;;;;;-2.25;100.00;100949.72;5089155;28;20525;-76
2021/04/22 02:45:00;;;;;;;1.75;1.75;;;;;;;-2.25;100.00;100944.28;5103986;28;20055;-76
2021/04/22 02:48:05;;;;;;;3.13;2.15;;;;;;;-2.27;100.00;100948.53;5098034;28;20047;-75
2021/04/22 02:51:09;;;;;;;20.73;1.92;;;;;;;-2.29;100.00;100951.59;5110415;28;20050;-75
2021/04/22 02:54:12;;;;;;;13.82;1.95;;;;;;;-2.33;100.00;100948.03;5097859;28;20044;-76
2021/04/22 02:57:15;;;;;;;2.08;2.08;;;;;;;-2.35;100.00;100956.59;5110419;28;20055;-76
2021/04/22 03:00:21;;;;;;;4.80;1.80;;;;;;;-2.36;100.00;100948.78;5109741;28;20544;-76
2021/04/22 03:03:25;;;;;;;3.78;2.15;;;;;;;-2.38;100.00;100949.13;5110575;28;20070;-76
2021/04/22 03:06:28;;;;;;;1.70;1.70;;;;;;;-2.41;100.00;100949.06;5110382;28;20054;-76
2021/04/22 03:09:32;;;;;;;1.98;1.98;;;;;;;-2.45;100.00;100940.78;5110426;28;20528;-76
2021/04/22 03:12:36;;;;;;;25.23;2.17;;;;;;;-2.50;100.00;100943.84;5110344;28;20055;-75
2021/04/22 03:15:39;;;;;;;2.38;2.20;;;;;;;-2.52;100.00;100942.59;5109985;28;20051;-75
2021/04/22 03:18:43;;;;;;;3.72;2.05;;;;;;;-2.52;100.00;100961.69;5110255;28;20048;-75
2021/04/22 03:21:47;;;;;;;1.50;1.50;;;;;;;-2.53;100.00;100958.19;5097513;28;20047;-76
2021/04/22 03:24:51;;;;;;;2.22;2.13;;;;;;;-2.53;100.00;100949.19;5110033;28;20058;-76
2021/04/22 03:27:55;;;;;;;1.95;1.92;;;;;;;-2.54;100.00;100953.09;5110174;28;20067;-76
2021/04/22 03:30:58;;;;;;;1.55;1.50;;;;;;;-2.55;100.00;100952.28;5097614;28;20536;-76
2021/04/22 03:34:02;;;;;;;1.98;1.98;;;;;;;-2.56;100.00;100960.84;5110028;28;20063;-75
2021/04/22 03:37:06;;;;;;;1.58;1.58;;;;;;;-2.57;100.00;100949.16;5097579;28;20055;-76
2021/04/22 03:40:13;;;;;;;2.60;2.47;;;;;;;-2.62;100.00;100951.38;5101177;28;20051;-75
2021/04/22 03:43:16;;;;;;;1.50;1.50;;;;;;;-2.65;100.00;100954.81;5113716;28;20067;-75
2021/04/22 03:46:19;;;;;;;12.55;2.85;;;;;;;-2.68;100.00;100952.81;5092652;28;20390;-76
2021/04/22 03:49:23;;;;;;;1.83;1.83;;;;;;;-2.70;100.00;100947.72;5093264;28;20044;-75
2021/04/22 03:52:27;;;;;;;1.67;1.67;;;;;;;-2.73;100.00;100942.97;5093147;28;20599;-75
2021/04/22 03:55:30;;;;;;;1.45;1.45;;;;;;;-2.74;100.00;100940.63;5092512;28;20386;-75
2021/04/22 03:58:34;;;;;;;1.75;1.70;;;;;;;-2.76;100.00;100951.09;5092926;28;20051;-75
2021/04/22 04:01:37;;;;;;;1.88;1.88;;;;;;;-2.78;100.00;100947.94;5092968;28;20058;-75
2021/04/22 04:04:41;;;;;;;1.23;1.23;;;;;;;-2.81;100.00;100945.91;5092907;28;20075;-75
2021/04/22 04:07:46;;;;;;;8.50;2.05;;;;;;;-2.83;100.00;100953.66;5092622;28;20085;-76
2021/04/22 04:10:50;;;;;;;1.90;1.90;;;;;;;-2.87;100.00;100947.34;5092773;28;20047;-75
2021/04/22 04:13:53;;;;;;;18.30;2.67;;;;;;;-2.93;100.00;100949.59;5092550;28;20055;-75
2021/04/22 04:16:56;;;;;;;1.38;1.38;;;;;;;-2.97;100.00;100961.56;5080205;28;20048;-75
2021/04/22 04:20:00;;;;;;;1.40;1.40;;;;;;;-2.95;100.00;100956.53;5092109;28;20410;-75
2021/04/22 04:23:04;;;;;;;2.00;1.90;;;;;;;-2.98;100.00;100957.25;5092417;28;20059;-75
2021/04/22 04:26:08;;;;;;;1.65;1.65;;;;;;;-2.98;100.00;100954.53;5092477;28;20067;-75
2021/04/22 04:29:12;;;;;;;4.75;2.50;;;;;;;-2.96;100.00;100957.69;5092520;28;20067;-75
2021/04/22 04:32:15;;;;;;;1.48;1.48;;;;;;;-2.98;100.00;100957.25;5092444;28;20405;-75
2021/04/22 04:35:19;;;;;;;2.10;2.10;;;;;;;-3.01;100.00;100958.75;5091886;28;20063;-76
2021/04/22 04:38:22;;;;;;;1.15;1.15;;;;;;;-3.05;100.00;100952.44;5092118;28;20075;-75
2021/04/22 04:41:26;;;;;;;3.08;2.80;;;;;;;-3.08;100.00;100955.88;5079841;28;20437;-75
2021/04/22 04:44:30;;;;;;;1.50;1.50;;;;;;;-3.12;100.00;100958.53;5101476;28;20764;-75
2021/04/22 04:47:33;;;;;;;1.75;1.75;;;;;;;-3.17;100.00;100958.81;5112512;28;20055;-75
2021/04/22 04:50:37;;;;;;;1.42;1.42;;;;;;;-3.18;100.00;100962.69;5112094;28;20098;-75
2021/04/22 04:53:40;;;;;;;1.80;1.80;;;;;;;-3.22;100.00;100963.75;5112624;28;20410;-75
2021/04/22 04:56:44;;;;;;;1.48;1.48;;;;;;;-3.23;100.00;100965.66;5111322;28;20062;-76
2021/04/22 04:59:48;;;;;;;1.75;1.75;;;;;;;-3.24;100.00;100969.56;5111997;28;20074;-76
2021/04/22 05:02:51;;;;;;;2.08;2.08;;;;;;;-3.24;100.00;100964.09;5112734;28;20054;-76
2021/04/22 05:05:55;;;;;;;4.50;3.50;;;;;;;-3.26;100.00;100965.59;5112028;28;20532;-77
2021/04/22 05:08:58;;;;;;;6.55;3.33;;;;;;;-3.24;100.00;100960.59;5099584;28;20066;-77
2021/04/22 05:12:02;;;;;;;1.60;1.60;;;;;;;-3.23;100.00;100962.94;5111945;28;20063;-77
2021/04/22 05:15:07;;;;;;;1.35;1.35;;;;;;;-3.21;100.00;100968.84;5111735;28;20117;-77
2021/04/22 05:18:10;;;;;;;1.90;1.90;;;;;;;-3.21;100.00;100966.13;5111648;28;20058;-77
2021/04/22 05:21:13;;;;;;;1.60;1.60;;;;;;;-3.18;100.00;100968.13;5111413;28;20055;-77
2021/04/22 05:24:17;;;;;;;1.63;1.63;;;;;;;-3.15;100.00;100972.06;5111456;28;20050;-76
2021/04/22 05:27:20;;;;;;;33.13;3.17;;;;;;;-3.12;100.00;100972.13;5111207;28;20051;-77
2021/04/22 05:30:24;;;;;;;3.03;2.10;;;;;;;-3.09;100.00;100976.88;5099135;28;20051;-76
2021/04/22 05:33:28;;;;;;;7.65;4.25;;;;;;;-3.04;100.00;100981.28;5111259;28;20055;-77
2021/04/22 05:36:32;;;;;;;18.75;6.25;;;;;;;-2.99;100.00;100981.00;5111237;28;20054;-77
2021/04/22 05:39:35;;;;;;;15.38;5.93;;;;;;;-2.95;100.00;100983.78;5111022;28;20409;-77
2021/04/22 05:42:39;;;;;;;16.00;4.38;;;;;;;-2.94;100.00;100993.53;5098457;28;20048;-77
2021/04/22 05:45:42;;;;;;;5.72;3.70;;;;;;;-2.89;100.00;101001.44;5110302;28;20043;-76
2021/04/22 05:48:45;;;;;;;16.30;5.18;;;;;;;-2.86;100.00;101006.97;5110552;28;20074;-76
2021/04/22 05:51:49;;;;;;;16.67;4.82;;;;;;;-2.82;100.00;101004.31;5110497;28;20425;-77
2021/04/22 05:54:52;;;;;;;10.25;3.83;;;;;;;-2.77;100.00;101014.94;5110637;28;20051;-77
2021/04/22 05:57:59;;;;;;;2.08;1.98;;;;;;;-2.73;100.00;101021.25;5110704;28;20401;-76
2021/04/22 06:01:03;;;;;;;2.40;1.80;;;;;;;-2.70;100.00;101021.31;5097748;28;20054;-77
2021/04/22 06:04:07;;;;;;;15.38;5.45;;;;;;;-2.61;100.00;101024.63;5110918;28;20058;-77
2021/04/22 06:07:11;;;;;;;12.02;3.97;;;;;;;-2.52;100.00;101019.75;5111100;28;20048;-77
2021/04/22 06:10:15;;;;;;;20.25;6.10;;;;;;;-2.41;100.00;101020.75;5110994;28;20051;-76
2021/04/22 06:13:19;;;;;;;64.00;12.75;;;;;;;-2.31;100.00;101020.16;5110290;28;20059;-77
2021/04/22 06:16:22;;;;;;;68.63;16.90;;;;;;;-2.19;100.00;101024.69;5110947;28;20039;-77
2021/04/22 06:19:26;;;;;;;20.95;7.43;;;;;;;-2.05;100.00;101029.59;5110739;28;20048;-76
2021/04/22 06:22:29;;;;;;;25.48;4.45;;;;;;;-1.95;100.00;101040.72;5110793;28;20044;-77
2021/04/22 06:25:34;;;;;;;4.93;4.43;;;;;;;-1.84;100.00;101035.47;5110896;28;20052;-77
2021/04/22 06:28:37;;;;;;;10.73;3.28;;;;;;;-1.72;100.00;101038.00;5110529;28;20063;-77
2021/04/22 06:31:41;;;;;;;6.18;3.42;;;;;;;-1.61;100.00;101042.50;5110748;28;20486;-77
2021/04/22 06:34:46;;;;;;;2.83;2.72;;;;;;;-1.49;100.00;101046.22;5111435;28;20058;-77
2021/04/22 06:37:50;;;;;;;1.95;1.88;;;;;;;-1.41;100.00;101036.97;5110456;28;20047;-77
2021/04/22 06:40:53;;;;;;;6.75;3.05;;;;;;;-1.31;100.00;101037.13;5110433;28;20058;-76
2021/04/22 06:43:57;;;;;;;5.45;3.55;;;;;;;-1.13;100.00;101048.34;5110595;28;20059;-76
2021/04/22 06:47:00;;;;;;;3.28;3.10;;;;;;;-0.99;100.00;101041.13;5109879;28;20113;-76
2021/04/22 06:50:09;;;;;;;7.38;3.35;;;;;;;-0.85;100.00;101043.28;5110695;28;20054;-76
2021/04/22 06:53:13;;;;;;;3.05;2.47;;;;;;;-0.54;100.00;101044.88;5083250;28;20042;-76
2021/04/22 06:56:16;;;;;;;15.13;4.07;;;;;;;-0.03;100.00;101052.16;5113422;28;20058;-76
2021/04/22 06:59:20;;;;;;;5.68;3.67;;;;;;;0.26;100.00;101050.47;5113869;28;20377;-75
2021/04/22 07:02:23;;;;;;;4.45;2.38;;;;;;;0.25;100.00;101046.16;5115869;28;20042;-75
2021/04/22 07:05:28;;;;;;;2.67;2.20;;;;;;;0.26;100.00;101046.97;5114647;28;20504;-75
2021/04/22 07:08:31;;;;;;;2.22;2.10;;;;;;;0.52;100.00;101055.78;5113734;28;20034;-76
2021/04/22 07:11:35;;;;;;;5.53;1.80;;;;;;;0.70;100.00;101047.72;5113873;28;20496;-76
2021/04/22 07:14:43;;;;;;;5.30;2.50;;;;;;;0.95;100.00;101048.72;5117642;28;20038;-76
2021/04/22 07:17:46;;;;;;;11.18;2.08;;;;;;;1.04;100.00;101049.16;5116678;28;20054;-77
2021/04/22 07:20:50;;;;;;;1.08;1.08;;;;;;;1.15;100.00;101049.25;5116393;28;20491;-77
2021/04/22 07:23:53;;;;;;;5.72;2.10;;;;;;;1.22;100.00;101054.75;5116526;28;20047;-76
2021/04/22 07:26:56;;;;;;;3.17;3.00;;;;;;;1.34;100.00;101052.47;5116656;28;20492;-77
2021/04/22 07:30:00;;;;;;;1.30;1.30;;;;;;;1.47;100.00;101050.97;5116106;28;20505;-77
2021/04/22 07:33:05;;;;;;;1.65;1.55;;;;;;;1.70;100.00;101063.63;5115925;28;20035;-77
2021/04/22 07:36:08;;;;;;;1.70;1.65;;;;;;;1.94;100.00;101054.69;5116120;28;20054;-77
2021/04/22 07:39:12;;;;;;;1.30;1.30;;;;;;;2.19;100.00;101055.53;5116070;28;20034;-76
2021/04/22 07:42:16;;;;;;;5.43;2.20;;;;;;;2.48;100.00;101048.13;5115919;28;20038;-76
2021/04/22 07:45:34;;;;;;;1.30;1.30;;;;;;;2.80;100.00;101048.91;5115777;28;20058;-77
2021/04/22 07:48:37;;;;;;;10.95;1.17;;;;;;;3.08;100.00;101049.69;5115835;28;20042;-76
2021/04/22 07:51:40;;;;;;;2.05;1.27;;;;;;;3.30;100.00;101049.63;5115838;28;20038;-77
2021/04/22 07:54:44;;;;;;;3.70;2.03;;;;;;;3.43;100.00;101048.03;5115765;28;20039;-77
2021/04/22 07:57:49;;;;;;;3.15;1.25;;;;;;;3.68;100.00;101045.97;5115539;28;20051;-76
2021/04/22 08:00:53;;;;;;;1.98;1.88;;;;;;;3.87;100.00;101051.00;5115541;28;20042;-77
2021/04/22 08:03:56;;;;;;;1.33;1.23;;;;;;;3.91;100.00;101045.47;5115427;28;20042;-78
2021/04/22 08:06:59;;;;;;;0.82;0.82;;;;;;;4.07;100.00;101032.78;5115622;28;20042;-77
2021/04/22 08:10:17;;;;;;;2.55;1.45;;;;;;;4.30;100.00;101041.31;5115311;28;20496;-77
2021/04/22 08:13:21;;;;;;;1.30;1.30;;;;;;;4.45;100.00;101042.78;5115389;28;20488;-76
2021/04/22 08:16:25;;;;;;;1.85;1.58;;;;;;;4.39;100.00;101041.66;5115271;28;20058;-77
2021/04/22 08:19:29;;;;;;;3.10;1.05;;;;;;;4.47;100.00;101042.38;5102772;28;20047;-76
2021/04/22 08:22:34;;;;;;;4.40;1.20;;;;;;;4.74;100.00;101037.03;5115139;28;20054;-76
2021/04/22 08:25:41;;;;;;;1.20;1.13;;;;;;;4.99;100.00;101032.09;5114419;28;20043;-76
2021/04/22 08:28:48;;;;;;;4.68;1.40;;;;;;;5.19;100.00;101044.13;5115040;28;20053;-76
2021/04/22 08:31:52;;;;;;;9.63;1.02;;;;;;;5.35;100.00;101038.81;5102404;28;20488;-76
2021/04/22 08:34:55;;;;;;;3.85;2.08;;;;;;;5.61;100.00;101046.41;5114588;28;20047;-76
2021/04/22 08:37:59;;;;;;;2.80;1.33;;;;;;;5.73;100.00;101042.31;5114864;28;20389;-76
2021/04/22 08:41:03;;;;;;;3.35;1.15;;;;;;;5.99;100.00;101045.19;5114913;28;20046;-75
2021/04/22 08:44:07;;;;;;;0.75;0.75;;;;;;;6.23;100.00;101056.31;5114632;28;20058;-75
2021/04/22 08:47:11;;;;;;;0.88;0.88;;;;;;;6.30;100.00;101053.44;5114822;28;20059;-77
2021/04/22 08:50:17;;;;;;;2.72;1.15;;;;;;;6.43;100.00;101060.72;5114641;28;20039;-77
2021/04/22 08:53:25;;;;;;;0.98;0.73;;;;;;;6.60;100.00;101053.38;5114636;28;20488;-77
2021/04/22 08:56:33;;;;;;;1.25;1.15;;;;;;;6.71;100.00;101051.22;5115095;28;20043;-79
2021/04/22 08:59:36;;;;;;;4.43;0.90;;;;;;;6.86;100.00;101047.03;5115301;28;20035;-80
2021/04/22 09:02:39;;;;;;;6.63;1.30;;;;;;;6.97;100.00;101047.63;5114476;28;20503;-79
2021/04/22 09:05:43;;;;;;;4.90;1.15;;;;;;;7.08;100.00;101048.19;5102000;28;20042;-80
2021/04/22 09:08:52;;;;;;;3.33;1.48;;;;;;;7.32;100.00;101052.50;5114349;28;20039;-78
2021/04/22 09:11:56;;;;;;;10.13;1.15;;;;;;;7.53;100.00;101040.25;5114638;28;20468;-79
2021/04/22 09:15:09;;;;;;;7.03;0.88;;;;;;;7.64;100.00;101041.59;5114122;28;20043;-79
2021/04/22 09:18:16;;;;;;;5.82;1.40;;;;;;;7.76;100.00;101042.16;5114158;28;20377;-79
2021/04/22 09:21:28;;;;;;;0.38;0.38;;;;;;;7.93;100.00;101043.78;5114195;28;20035;-79
2021/04/22 09:24:32;;;;;;;5.82;0.57;;;;;;;8.04;100.00;101030.47;5114048;28;20042;-79
2021/04/22 09:27:36;;;;;;;5.55;0.85;;;;;;;8.12;100.00;101040.22;5114228;28;20378;-80
2021/04/22 09:30:45;;;;;;;3.50;0.60;;;;;;;8.29;100.00;101036.28;5113906;28;20038;-80
2021/04/22 09:34:06;;;;;;;0.52;0.47;;;;;;;8.47;100.00;101035.88;5113667;28;20047;-80
2021/04/22 09:37:10;;;;;;;2.80;0.40;;;;;;;8.51;100.00;101031.78;5112995;28;20043;-79
2021/04/22 09:40:23;;;;;;;0.30;0.30;;;;;;;8.57;100.00;101024.53;5113779;28;20377;-78
2021/04/22 09:43:27;;;;;;;5.60;0.45;;;;;;;8.82;100.00;101029.44;5113465;28;20381;-78
2021/04/22 09:46:31;;;;;;;6.50;0.60;;;;;;;9.10;100.00;101023.94;5113511;28;20047;-79
2021/04/22 09:49:51;;;;;;;3.72;0.40;;;;;;;9.33;100.00;101024.94;5113438;28;20059;-79
2021/04/22 09:52:58;;;;;;;1.60;0.70;;;;;;;9.26;100.00;101022.34;5101209;28;20149;-78
2021/04/22 09:56:12;;;;;;;1.27;0.63;;;;;;;9.26;100.00;101014.00;5113702;28;20054;-76
2021/04/22 09:59:18;;;;;;;3.60;1.20;;;;;;;9.38;100.00;101027.97;5113358;28;20055;-76
2021/04/22 10:02:23;;;;;;;4.80;1.48;;;;;;;9.31;100.00;101017.06;5113264;28;20381;-76
2021/04/22 10:05:29;;;;;;;0.40;0.40;;;;;;;9.56;100.00;101021.91;5113333;28;20043;-76
2021/04/22 10:08:43;;;;;;;2.63;0.60;;;;;;;9.72;100.00;101024.66;5113045;28;20038;-77
2021/04/22 10:11:51;;;;;;;4.28;0.30;;;;;;;9.95;100.00;101032.69;5100450;28;20026;-77
2021/04/22 10:14:56;;;;;;;5.18;0.63;;;;;;;10.01;100.00;101017.00;5113310;28;20034;-77
2021/04/22 10:18:08;;;;;;;0.43;0.28;;;;;;;10.12;100.00;101008.34;5113043;28;20047;-77
2021/04/22 10:21:13;;;;;;;4.65;1.17;;;;;;;10.27;100.00;101012.25;5112763;28;20039;-77
2021/04/22 10:24:17;;;;;;;1.00;0.43;;;;;;;10.29;100.00;101007.81;5112749;28;20488;-77
2021/04/22 10:27:24;;;;;;;7.32;0.35;;;;;;;10.48;100.00;101014.41;5100367;28;20066;-78
2021/04/22 10:30:27;;;;;;;0.50;0.30;;;;;;;10.51;93.21;101011.47;5113205;28;20373;-78
2021/04/22 10:33:31;;;;;;;0.10;0.10;;;;;;;10.51;95.60;101014.28;5112880;28;20050;-78
2021/04/22 10:36:37;;;;;;;3.70;0.43;;;;;;;10.60;97.55;101011.59;5112858;28;20047;-77
2021/04/22 10:39:41;;;;;;;10.77;1.35;;;;;;;10.80;96.37;101013.34;5112863;28;20050;-78
2021/04/22 10:42:45;;;;;;;2.38;0.45;;;;;;;10.91;89.71;101010.97;5112828;28;20389;-78
2021/04/22 10:45:53;;;;;;;5.38;0.22;;;;;;;10.87;86.96;101013.09;5092904;28;20043;-78
2021/04/22 10:48:58;;;;;;;1.65;0.20;;;;;;;10.85;77.69;101010.00;5096107;28;20373;-79
2021/04/22 10:52:03;;;;;;;4.82;0.40;;;;;;;10.81;86.27;101009.31;5084317;28;20063;-78
2021/04/22 10:55:24;;;;;;;0.30;0.30;;;;;;;10.82;83.37;101008.09;5084376;28;20370;-78
2021/04/22 10:58:32;;;;;;;1.08;0.40;;;;;;;10.77;79.95;101000.28;5097610;28;20039;-80
2021/04/22 11:01:38;;;;;;;0.35;0.22;;;;;;;10.87;78.04;101018.69;5096572;28;20047;-78
2021/04/22 11:04:42;;;;;;;2.70;0.40;;;;;;;10.95;69.88;101008.84;5096586;28;20052;-79
2021/04/22 11:08:07;;;;;;;5.22;0.52;;;;;;;10.89;74.55;101005.06;5096357;28;20413;-79
2021/04/22 11:11:35;;;;;;;7.32;0.50;;;;;;;11.12;81.26;101007.44;5096297;28;20039;-79
2021/04/22 11:14:46;;;;;;;3.28;0.68;;;;;;;11.30;74.99;100996.47;5096093;28;20063;-79
2021/04/22 11:17:49;;;;;;;0.20;0.20;;;;;;;11.52;67.27;100996.47;5096207;28;20047;-79
2021/04/22 11:20:53;;;;;;;0.10;0.00;;;;;;;11.64;63.86;101001.97;5096124;28;20142;-80
2021/04/22 11:23:59;;;;;;;4.03;1.00;;;;;;;11.73;62.04;100996.50;5096029;28;20063;-78
2021/04/22 11:27:04;;;;;;;1.58;0.30;;;;;;;11.82;58.03;100995.78;5095837;28;20481;-77
2021/04/22 11:30:09;;;;;;;1.45;0.32;;;;;;;11.87;62.22;100993.16;5095818;28;20505;-77
2021/04/22 11:33:13;;;;;;;9.52;0.38;;;;;;;11.99;60.02;100989.50;5095658;28;20039;-85
2021/04/22 11:36:22;;;;;;;2.17;0.30;;;;;;;12.01;58.50;100995.41;5096118;28;20046;-84
2021/04/22 11:39:36;;;;;;;1.73;0.30;;;;;;;11.99;62.12;100983.94;5083118;28;20475;-81
2021/04/22 11:42:40;;;;;;;6.20;0.80;;;;;;;11.92;64.62;100983.41;5095430;28;20043;-81
2021/04/22 11:45:48;;;;;;;3.13;0.70;;;;;;;11.77;63.76;100983.19;5104101;28;20393;-82
2021/04/22 11:48:51;;;;;;;2.33;0.82;;;;;;;11.98;59.54;100978.78;5117277;28;20492;-83
2021/04/22 11:51:57;;;;;;;2.75;0.25;;;;;;;12.10;53.40;100975.91;5103075;28;20043;-80
2021/04/22 11:55:12;;;;;;;1.63;0.20;;;;;;;12.19;50.42;100983.56;5115785;28;20071;-81
2021/04/22 11:58:18;;;;;;;0.40;0.22;;;;;;;12.21;57.53;100974.72;5102371;28;20039;-82
2021/04/22 12:01:21;;;;;;;2.47;0.40;;;;;;;12.33;59.57;100971.78;5115413;28;20054;-82
2021/04/22 12:04:40;;;;;;;0.52;0.52;;;;;;;12.38;55.21;100967.63;5115398;28;20512;-81
2021/04/22 12:07:54;;;;;;;3.22;0.65;;;;;;;12.39;50.91;100969.19;5115662;28;20381;-81
2021/04/22 12:10:59;;;;;;;1.58;0.28;;;;;;;12.55;50.58;100977.28;5115437;28;20038;-81
2021/04/22 12:14:04;;;;;;;0.50;0.38;;;;;;;12.63;47.04;100967.38;5094846;28;20035;-80
2021/04/22 12:17:37;;;;;;;4.15;0.30;;;;;;;12.77;49.69;100966.78;5098745;28;20496;-80
2021/04/22 12:20:40;;;;;;;0.10;0.10;;;;;;;13.06;53.12;100967.16;5115406;28;20054;-82
2021/04/22 12:23:47;;;;;;;1.85;0.13;;;;;;;13.03;49.47;100968.06;5114559;28;20058;-79
2021/04/22 12:26:51;;;;;;;1.10;0.47;;;;;;;12.98;48.48;100965.88;5112432;28;20063;-81
2021/04/22 12:29:55;;;;;;;1.63;0.30;;;;;;;13.08;47.21;100973.03;5115026;28;20050;-81
2021/04/22 12:33:01;;;;;;;5.93;0.98;;;;;;;13.12;46.98;100970.91;5112017;28;20031;-82
2021/04/22 12:36:05;;;;;;;1.02;0.47;;;;;;;13.21;48.85;100978.50;5114061;28;20473;-81
2021/04/22 12:39:08;;;;;;;0.80;0.40;;;;;;;13.21;48.10;100972.91;5102361;28;20039;-80
2021/04/22 12:42:13;;;;;;;1.27;0.47;;;;;;;13.15;45.75;100964.34;5115160;28;20038;-80
2021/04/22 12:49:58;;;;;;;5.47;0.10;;;;;;;13.09;44.54;100974.63;5099228;28;20031;-79
2021/04/22 13:02:47;;;;;;;0.90;0.55;;;;;;;13.54;44.54;100960.59;5105820;28;20054;-78
2021/04/22 13:24:37;;;;;;;0.22;0.13;;;;;;;13.58;41.57;100957.63;5095109;28;20496;-77
2021/04/22 13:27:40;;;;;;;0.40;0.10;;;;;;;13.60;42.51;100957.94;5093942;28;20047;-79
2021/04/22 13:30:46;;;;;;;2.30;0.40;;;;;;;13.59;41.05;100964.78;5093613;28;20050;-78
2021/04/22 13:33:51;;;;;;;1.42;0.22;;;;;;;13.53;40.23;100961.06;5093470;28;20035;-78
2021/04/22 13:37:01;;;;;;;0.63;0.20;;;;;;;13.59;40.60;100965.56;5093654;28;20098;-77
2021/04/22 13:40:10;;;;;;;0.68;0.20;;;;;;;13.67;40.71;100961.19;5093616;28;20043;-78
2021/04/22 13:43:15;;;;;;;5.28;0.20;;;;;;;13.71;41.36;100961.00;5101316;28;20102;-78
2021/04/22 13:46:18;;;;;;;2.60;0.25;;;;;;;13.88;40.80;100953.06;5080908;28;20039;-78
2021/04/22 13:49:29;;;;;;;1.05;0.10;;;;;;;13.92;40.92;100953.66;5099617;28;20039;-78
2021/04/22 13:52:33;;;;;;;0.13;0.10;;;;;;;13.94;40.63;100954.75;5093262;28;20050;-77
2021/04/22 13:55:50;;;;;;;3.72;0.28;;;;;;;13.86;39.68;100955.56;5092438;28;20047;-77
2021/04/22 13:58:54;;;;;;;4.15;1.05;;;;;;;13.88;38.72;100962.22;5112624;28;20109;-77
2021/04/22 14:02:02;;;;;;;0.75;0.28;;;;;;;13.91;37.61;100957.69;5102703;28;20496;-76
2021/04/22 14:05:10;;;;;;;0.47;0.20;;;;;;;13.75;36.10;100946.88;5113541;28;20062;-78
2021/04/22 14:08:13;;;;;;;0.55;0.10;;;;;;;13.67;35.69;100950.00;5113659;28;20050;-77
2021/04/22 14:11:18;;;;;;;3.22;0.80;;;;;;;13.77;37.40;100944.38;5098197;28;20038;-78
2021/04/22 14:14:26;;;;;;;4.07;0.88;;;;;;;13.85;36.87;100937.97;5113558;28;20043;-78
2021/04/22 14:17:30;;;;;;;4.78;0.30;;;;;;;13.95;37.99;100942.28;5113411;28;20042;-78
2021/04/22 14:20:33;;;;;;;2.92;1.08;;;;;;;13.99;37.04;100948.47;5109572;28;20047;-77
2021/04/22 14:23:38;;;;;;;0.20;0.20;;;;;;;14.01;36.31;100940.38;5110112;28;20038;-78
2021/04/22 14:26:42;;;;;;;7.97;1.27;;;;;;;14.11;37.95;100949.53;5113240;28;20042;-78
2021/04/22 14:34:20;;;;;;;2.22;0.55;;;;;;;14.04;37.48;100935.88;5101453;28;20389;-79
2021/04/22 14:37:25;;;;;;;0.90;0.50;;;;;;;14.10;37.58;100947.97;5097945;28;20054;-77
2021/04/22 14:40:29;;;;;;;3.10;0.38;;;;;;;14.06;36.41;100936.94;5112918;28;20050;-78
2021/04/22 14:43:33;;;;;;;1.00;0.22;;;;;;;14.05;35.63;100945.84;5118778;28;20035;-78
2021/04/22 14:46:36;;;;;;;1.58;0.43;;;;;;;13.97;36.39;100942.59;5112712;28;20050;-78
2021/04/22 14:49:40;;;;;;;3.05;0.95;;;;;;;13.93;33.41;100939.19;5094306;28;20043;-78
2021/04/22 14:52:43;;;;;;;1.60;0.75;;;;;;;13.94;34.86;100937.16;5093124;28;20058;-79